Exeter, Virginia
Current Conditions -  °F | °C
As of 3:35 PM on Monday 26 Jan 2015 (Local Time) from KLNP Reporting Station
Haze Haze  
Wind Chill: 14°   Ceiling: 500
Heat Index: 27°   Visibility: 5mi
Dew Point: 27°   Wind: 16mph
Humidity: 100%   Direction: 300°WNW
Pressure: 29.74"   Gusts: 22mph
Location:  36.9224°N, 82.7857°W
Report Text: KLNP 262035Z AUTO 30014G19KT 5SM BR OVC005 M03/M03 A2974 RMK AO2
Loading
Personal Weather Stations






























Interactive Weather Map New forecast layout! Learn more

10-Day Weather Forecast

Advertisements
Track Severe Weather on mobile